sensor_id;sensor_type;location;lat;lon;timestamp;temperature;humidity
21246;DHT22;10781;50.928;4.440;2024-01-25T00:01:11;10.10;99.90
21246;DHT22;10781;50.928;4.440;2024-01-25T00:03:37;10.20;99.90
21246;DHT22;10781;50.928;4.440;2024-01-25T00:06:04;10.30;99.90
21246;DHT22;10781;50.928;4.440;2024-01-25T00:08:31;10.30;99.90
21246;DHT22;10781;50.928;4.440;2024-01-25T00:10:57;10.10;99.90
21246;DHT22;10781;50.928;4.440;2024-01-25T00:13:22;10.10;99.90
21246;DHT22;10781;50.928;4.440;2024-01-25T00:15:48;10.10;99.90
21246;DHT22;10781;50.928;4.440;2024-01-25T00:18:13;10.00;99.90
21246;DHT22;10781;50.928;4.440;2024-01-25T00:20:39;9.90;99.90
21246;DHT22;10781;50.928;4.440;2024-01-25T00:23:06;9.90;99.90
21246;DHT22;10781;50.928;4.440;2024-01-25T00:25:32;9.90;99.90
21246;DHT22;10781;50.928;4.440;2024-01-25T00:27:58;9.90;99.90
21246;DHT22;10781;50.928;4.440;2024-01-25T00:30:23;9.80;99.90
21246;DHT22;10781;50.928;4.440;2024-01-25T00:32:49;9.80;99.90
21246;DHT22;10781;50.928;4.440;2024-01-25T00:35:15;9.70;99.90
21246;DHT22;10781;50.928;4.440;2024-01-25T00:37:41;9.70;99.90
21246;DHT22;10781;50.928;4.440;2024-01-25T00:40:08;9.50;99.90
21246;DHT22;10781;50.928;4.440;2024-01-25T00:42:40;9.60;99.90
21246;DHT22;10781;50.928;4.440;2024-01-25T00:45:07;9.50;99.90
21246;DHT22;10781;50.928;4.440;2024-01-25T00:47:33;9.60;99.90
21246;DHT22;10781;50.928;4.440;2024-01-25T00:49:59;9.70;99.90
21246;DHT22;10781;50.928;4.440;2024-01-25T00:52:25;9.70;99.90
21246;DHT22;10781;50.928;4.440;2024-01-25T00:54:51;9.70;99.90
21246;DHT22;10781;50.928;4.440;2024-01-25T00:57:17;9.60;99.90
21246;DHT22;10781;50.928;4.440;2024-01-25T00:59:43;9.50;99.90
21246;DHT22;10781;50.928;4.440;2024-01-25T01:02:13;9.40;99.90
21246;DHT22;10781;50.928;4.440;2024-01-25T01:04:39;9.40;99.90
21246;DHT22;10781;50.928;4.440;2024-01-25T01:07:06;9.40;99.90
21246;DHT22;10781;50.928;4.440;2024-01-25T01:09:31;9.40;99.90
21246;DHT22;10781;50.928;4.440;2024-01-25T01:11:58;9.40;99.90
21246;DHT22;10781;50.928;4.440;2024-01-25T01:14:23;9.50;99.90
21246;DHT22;10781;50.928;4.440;2024-01-25T01:16:49;9.40;99.90
21246;DHT22;10781;50.928;4.440;2024-01-25T01:19:16;9.40;99.90
21246;DHT22;10781;50.928;4.440;2024-01-25T01:21:42;9.30;99.90
21246;DHT22;10781;50.928;4.440;2024-01-25T01:24:12;9.30;99.90
21246;DHT22;10781;50.928;4.440;2024-01-25T01:26:38;9.20;99.90
21246;DHT22;10781;50.928;4.440;2024-01-25T01:29:04;9.20;99.90
21246;DHT22;10781;50.928;4.440;2024-01-25T01:31:29;9.30;99.90
21246;DHT22;10781;50.928;4.440;2024-01-25T01:33:55;9.30;99.90
21246;DHT22;10781;50.928;4.440;2024-01-25T01:36:21;9.40;99.90
21246;DHT22;10781;50.928;4.440;2024-01-25T01:38:47;9.60;99.90
21246;DHT22;10781;50.928;4.440;2024-01-25T01:41:13;9.40;99.90
21246;DHT22;10781;50.928;4.440;2024-01-25T01:43:39;9.40;99.90
21246;DHT22;10781;50.928;4.440;2024-01-25T01:46:11;9.40;99.90
21246;DHT22;10781;50.928;4.440;2024-01-25T01:48:41;9.40;99.90
21246;DHT22;10781;50.928;4.440;2024-01-25T01:51:08;9.50;99.90
21246;DHT22;10781;50.928;4.440;2024-01-25T01:53:35;9.30;99.90
21246;DHT22;10781;50.928;4.440;2024-01-25T01:56:01;9.20;99.90
21246;DHT22;10781;50.928;4.440;2024-01-25T01:58:27;9.20;99.90
21246;DHT22;10781;50.928;4.440;2024-01-25T02:00:55;9.20;99.90
21246;DHT22;10781;50.928;4.440;2024-01-25T02:03:21;9.30;99.90
21246;DHT22;10781;50.928;4.440;2024-01-25T02:05:47;9.30;99.90
21246;DHT22;10781;50.928;4.440;2024-01-25T02:08:13;9.50;99.90
21246;DHT22;10781;50.928;4.440;2024-01-25T02:10:38;9.40;99.90
21246;DHT22;10781;50.928;4.440;2024-01-25T02:13:04;9.30;99.90
21246;DHT22;10781;50.928;4.440;2024-01-25T02:15:30;9.20;99.90
21246;DHT22;10781;50.928;4.440;2024-01-25T02:17:56;9.20;99.90
21246;DHT22;10781;50.928;4.440;2024-01-25T02:20:22;9.20;99.90
21246;DHT22;10781;50.928;4.440;2024-01-25T02:22:47;9.20;99.90
21246;DHT22;10781;50.928;4.440;2024-01-25T02:25:13;9.20;99.90
21246;DHT22;10781;50.928;4.440;2024-01-25T02:27:39;9.20;99.90
21246;DHT22;10781;50.928;4.440;2024-01-25T02:30:08;9.20;99.90
21246;DHT22;10781;50.928;4.440;2024-01-25T02:32:34;9.20;99.90
21246;DHT22;10781;50.928;4.440;2024-01-25T02:34:59;9.40;99.90
21246;DHT22;10781;50.928;4.440;2024-01-25T02:37:26;9.40;99.90
21246;DHT22;10781;50.928;4.440;2024-01-25T02:39:52;9.30;99.90
21246;DHT22;10781;50.928;4.440;2024-01-25T02:42:18;9.20;99.90
21246;DHT22;10781;50.928;4.440;2024-01-25T02:44:44;9.30;99.90
21246;DHT22;10781;50.928;4.440;2024-01-25T02:47:09;9.30;99.90
21246;DHT22;10781;50.928;4.440;2024-01-25T02:49:35;9.20;99.90
21246;DHT22;10781;50.928;4.440;2024-01-25T02:52:01;9.20;99.90
21246;DHT22;10781;50.928;4.440;2024-01-25T02:54:27;9.20;99.90
21246;DHT22;10781;50.928;4.440;2024-01-25T02:56:53;9.20;99.90
21246;DHT22;10781;50.928;4.440;2024-01-25T02:59:18;9.10;99.90
21246;DHT22;10781;50.928;4.440;2024-01-25T03:01:44;9.10;99.90
21246;DHT22;10781;50.928;4.440;2024-01-25T03:04:11;9.20;99.90
21246;DHT22;10781;50.928;4.440;2024-01-25T03:06:37;9.20;99.90
21246;DHT22;10781;50.928;4.440;2024-01-25T03:09:02;9.10;99.90
21246;DHT22;10781;50.928;4.440;2024-01-25T03:11:31;9.20;99.90
21246;DHT22;10781;50.928;4.440;2024-01-25T03:13:57;9.30;99.90
21246;DHT22;10781;50.928;4.440;2024-01-25T03:16:22;9.20;99.90
21246;DHT22;10781;50.928;4.440;2024-01-25T03:18:48;9.20;99.90
21246;DHT22;10781;50.928;4.440;2024-01-25T03:21:13;9.30;99.90
21246;DHT22;10781;50.928;4.440;2024-01-25T03:23:39;9.40;99.90
21246;DHT22;10781;50.928;4.440;2024-01-25T03:26:05;9.20;99.90
21246;DHT22;10781;50.928;4.440;2024-01-25T03:28:31;9.20;99.90
21246;DHT22;10781;50.928;4.440;2024-01-25T03:30:57;9.10;99.90
21246;DHT22;10781;50.928;4.440;2024-01-25T03:33:22;9.10;99.90
21246;DHT22;10781;50.928;4.440;2024-01-25T03:35:48;9.20;99.90
21246;DHT22;10781;50.928;4.440;2024-01-25T03:38:14;9.00;99.90
21246;DHT22;10781;50.928;4.440;2024-01-25T03:40:39;8.90;99.90
21246;DHT22;10781;50.928;4.440;2024-01-25T03:43:05;8.80;99.90
21246;DHT22;10781;50.928;4.440;2024-01-25T03:45:31;8.70;99.90
21246;DHT22;10781;50.928;4.440;2024-01-25T03:47:58;8.70;99.90
21246;DHT22;10781;50.928;4.440;2024-01-25T03:50:24;8.80;99.90
21246;DHT22;10781;50.928;4.440;2024-01-25T03:52:49;8.80;99.90
21246;DHT22;10781;50.928;4.440;2024-01-25T03:55:15;8.70;99.90
21246;DHT22;10781;50.928;4.440;2024-01-25T03:57:40;8.50;99.90
21246;DHT22;10781;50.928;4.440;2024-01-25T04:00:08;8.50;99.90
21246;DHT22;10781;50.928;4.440;2024-01-25T04:02:34;8.70;99.90
21246;DHT22;10781;50.928;4.440;2024-01-25T04:05:00;8.90;99.90
21246;DHT22;10781;50.928;4.440;2024-01-25T04:07:26;8.80;99.90
21246;DHT22;10781;50.928;4.440;2024-01-25T04:09:51;8.80;99.90
21246;DHT22;10781;50.928;4.440;2024-01-25T04:12:17;8.50;99.90
21246;DHT22;10781;50.928;4.440;2024-01-25T04:14:43;8.20;99.90
21246;DHT22;10781;50.928;4.440;2024-01-25T04:17:08;8.40;99.90
21246;DHT22;10781;50.928;4.440;2024-01-25T04:19:35;8.50;99.90
21246;DHT22;10781;50.928;4.440;2024-01-25T04:22:01;8.70;99.90
21246;DHT22;10781;50.928;4.440;2024-01-25T04:24:27;8.80;99.90
21246;DHT22;10781;50.928;4.440;2024-01-25T04:26:52;8.80;99.90
21246;DHT22;10781;50.928;4.440;2024-01-25T04:29:18;8.70;99.90
21246;DHT22;10781;50.928;4.440;2024-01-25T04:31:44;8.70;99.90
21246;DHT22;10781;50.928;4.440;2024-01-25T04:34:12;8.80;99.90
21246;DHT22;10781;50.928;4.440;2024-01-25T04:36:38;8.70;99.90
21246;DHT22;10781;50.928;4.440;2024-01-25T04:39:03;8.70;99.90
21246;DHT22;10781;50.928;4.440;2024-01-25T04:41:29;8.90;99.90
21246;DHT22;10781;50.928;4.440;2024-01-25T04:43:54;8.80;99.90
21246;DHT22;10781;50.928;4.440;2024-01-25T04:46:20;8.80;99.90
21246;DHT22;10781;50.928;4.440;2024-01-25T04:48:46;8.80;99.90
21246;DHT22;10781;50.928;4.440;2024-01-25T04:51:19;8.80;99.90
21246;DHT22;10781;50.928;4.440;2024-01-25T04:53:47;8.70;99.90
21246;DHT22;10781;50.928;4.440;2024-01-25T04:56:13;8.60;99.90
21246;DHT22;10781;50.928;4.440;2024-01-25T04:58:39;8.50;99.90
21246;DHT22;10781;50.928;4.440;2024-01-25T05:01:04;8.60;99.90
21246;DHT22;10781;50.928;4.440;2024-01-25T05:03:32;8.80;99.90
21246;DHT22;10781;50.928;4.440;2024-01-25T05:05:58;8.90;99.90
21246;DHT22;10781;50.928;4.440;2024-01-25T05:08:27;8.90;99.90
21246;DHT22;10781;50.928;4.440;2024-01-25T05:10:52;8.60;99.90
21246;DHT22;10781;50.928;4.440;2024-01-25T05:13:18;8.60;99.90
21246;DHT22;10781;50.928;4.440;2024-01-25T05:15:44;8.60;99.90
21246;DHT22;10781;50.928;4.440;2024-01-25T05:18:10;8.70;99.90
21246;DHT22;10781;50.928;4.440;2024-01-25T05:20:35;8.60;99.90
21246;DHT22;10781;50.928;4.440;2024-01-25T05:23:03;8.60;99.90
21246;DHT22;10781;50.928;4.440;2024-01-25T05:25:29;8.40;99.90
21246;DHT22;10781;50.928;4.440;2024-01-25T05:27:55;8.20;99.90
21246;DHT22;10781;50.928;4.440;2024-01-25T05:30:22;8.20;99.90
21246;DHT22;10781;50.928;4.440;2024-01-25T05:32:48;8.20;99.90
21246;DHT22;10781;50.928;4.440;2024-01-25T05:35:18;8.00;99.90
21246;DHT22;10781;50.928;4.440;2024-01-25T05:37:44;8.10;99.90
21246;DHT22;10781;50.928;4.440;2024-01-25T05:40:10;8.20;99.90
21246;DHT22;10781;50.928;4.440;2024-01-25T05:42:36;8.30;99.90
21246;DHT22;10781;50.928;4.440;2024-01-25T05:45:03;8.40;99.90
21246;DHT22;10781;50.928;4.440;2024-01-25T05:47:29;8.40;99.90
21246;DHT22;10781;50.928;4.440;2024-01-25T05:49:55;8.40;99.90
21246;DHT22;10781;50.928;4.440;2024-01-25T05:52:21;8.40;99.90
21246;DHT22;10781;50.928;4.440;2024-01-25T05:54:48;8.30;99.90
21246;DHT22;10781;50.928;4.440;2024-01-25T05:57:14;8.40;99.90
21246;DHT22;10781;50.928;4.440;2024-01-25T05:59:40;8.40;99.90
21246;DHT22;10781;50.928;4.440;2024-01-25T06:02:05;8.60;99.90
21246;DHT22;10781;50.928;4.440;2024-01-25T06:04:31;8.40;99.90
21246;DHT22;10781;50.928;4.440;2024-01-25T06:06:57;8.30;99.90
21246;DHT22;10781;50.928;4.440;2024-01-25T06:09:23;8.30;99.90
21246;DHT22;10781;50.928;4.440;2024-01-25T06:11:50;8.30;99.90
21246;DHT22;10781;50.928;4.440;2024-01-25T06:14:17;8.30;99.90
21246;DHT22;10781;50.928;4.440;2024-01-25T06:16:43;8.30;99.90
21246;DHT22;10781;50.928;4.440;2024-01-25T06:19:10;8.30;99.90
21246;DHT22;10781;50.928;4.440;2024-01-25T06:21:36;8.40;99.90
21246;DHT22;10781;50.928;4.440;2024-01-25T06:24:03;8.40;99.90
21246;DHT22;10781;50.928;4.440;2024-01-25T06:26:29;8.50;99.90
21246;DHT22;10781;50.928;4.440;2024-01-25T06:28:55;8.40;99.90
21246;DHT22;10781;50.928;4.440;2024-01-25T06:31:22;8.40;99.90
21246;DHT22;10781;50.928;4.440;2024-01-25T06:33:47;8.50;99.90
21246;DHT22;10781;50.928;4.440;2024-01-25T06:36:19;8.40;99.90
21246;DHT22;10781;50.928;4.440;2024-01-25T06:38:45;8.40;99.90
21246;DHT22;10781;50.928;4.440;2024-01-25T06:41:11;8.50;99.90
21246;DHT22;10781;50.928;4.440;2024-01-25T06:43:37;8.50;99.90
21246;DHT22;10781;50.928;4.440;2024-01-25T06:46:03;8.40;99.90
21246;DHT22;10781;50.928;4.440;2024-01-25T06:48:28;8.50;99.90
21246;DHT22;10781;50.928;4.440;2024-01-25T06:50:54;8.60;99.90
21246;DHT22;10781;50.928;4.440;2024-01-25T06:53:21;8.60;99.90
21246;DHT22;10781;50.928;4.440;2024-01-25T06:55:47;8.70;99.90
21246;DHT22;10781;50.928;4.440;2024-01-25T06:58:12;8.80;99.90
21246;DHT22;10781;50.928;4.440;2024-01-25T07:00:38;8.70;99.90
21246;DHT22;10781;50.928;4.440;2024-01-25T07:03:05;8.70;99.90
21246;DHT22;10781;50.928;4.440;2024-01-25T07:05:30;8.70;99.90
21246;DHT22;10781;50.928;4.440;2024-01-25T07:07:59;8.70;99.90
21246;DHT22;10781;50.928;4.440;2024-01-25T07:10:25;8.70;99.90
21246;DHT22;10781;50.928;4.440;2024-01-25T07:12:50;8.50;99.90
21246;DHT22;10781;50.928;4.440;2024-01-25T07:15:17;8.60;99.90
21246;DHT22;10781;50.928;4.440;2024-01-25T07:17:43;8.60;99.90
21246;DHT22;10781;50.928;4.440;2024-01-25T07:20:09;8.60;99.90
21246;DHT22;10781;50.928;4.440;2024-01-25T07:22:35;8.60;99.90
21246;DHT22;10781;50.928;4.440;2024-01-25T07:25:01;8.50;99.90
21246;DHT22;10781;50.928;4.440;2024-01-25T07:27:27;8.60;99.90
21246;DHT22;10781;50.928;4.440;2024-01-25T07:29:52;8.50;99.90
21246;DHT22;10781;50.928;4.440;2024-01-25T07:32:19;8.40;99.90
21246;DHT22;10781;50.928;4.440;2024-01-25T07:34:45;8.30;99.90
21246;DHT22;10781;50.928;4.440;2024-01-25T07:37:12;8.30;99.90
21246;DHT22;10781;50.928;4.440;2024-01-25T07:39:37;8.50;99.90
21246;DHT22;10781;50.928;4.440;2024-01-25T07:42:03;8.80;99.90
21246;DHT22;10781;50.928;4.440;2024-01-25T07:44:29;9.00;99.90
21246;DHT22;10781;50.928;4.440;2024-01-25T07:46:54;9.00;99.90
21246;DHT22;10781;50.928;4.440;2024-01-25T07:49:20;9.00;99.90
21246;DHT22;10781;50.928;4.440;2024-01-25T07:51:46;8.80;99.90
21246;DHT22;10781;50.928;4.440;2024-01-25T07:54:12;8.50;99.90
21246;DHT22;10781;50.928;4.440;2024-01-25T07:56:39;8.50;99.90
21246;DHT22;10781;50.928;4.440;2024-01-25T07:59:05;8.40;99.90
21246;DHT22;10781;50.928;4.440;2024-01-25T08:01:30;8.60;99.90
21246;DHT22;10781;50.928;4.440;2024-01-25T08:03:56;8.70;99.90
21246;DHT22;10781;50.928;4.440;2024-01-25T08:06:21;8.80;99.90
21246;DHT22;10781;50.928;4.440;2024-01-25T08:08:48;8.60;99.90
21246;DHT22;10781;50.928;4.440;2024-01-25T08:11:13;8.50;99.90
21246;DHT22;10781;50.928;4.440;2024-01-25T08:13:43;8.70;99.90
21246;DHT22;10781;50.928;4.440;2024-01-25T08:16:10;8.70;99.90
21246;DHT22;10781;50.928;4.440;2024-01-25T08:18:39;9.00;99.90
21246;DHT22;10781;50.928;4.440;2024-01-25T08:21:05;9.00;99.90
21246;DHT22;10781;50.928;4.440;2024-01-25T08:23:31;9.00;99.90
21246;DHT22;10781;50.928;4.440;2024-01-25T08:25:57;9.20;99.90
21246;DHT22;10781;50.928;4.440;2024-01-25T08:28:23;9.40;99.90
21246;DHT22;10781;50.928;4.440;2024-01-25T08:30:48;9.50;99.90
21246;DHT22;10781;50.928;4.440;2024-01-25T08:33:14;9.50;99.90
21246;DHT22;10781;50.928;4.440;2024-01-25T08:35:40;9.40;99.90
21246;DHT22;10781;50.928;4.440;2024-01-25T08:38:06;9.40;99.90
21246;DHT22;10781;50.928;4.440;2024-01-25T08:40:33;9.50;99.90
21246;DHT22;10781;50.928;4.440;2024-01-25T08:42:58;9.50;99.90
21246;DHT22;10781;50.928;4.440;2024-01-25T08:45:24;9.50;99.90
21246;DHT22;10781;50.928;4.440;2024-01-25T08:47:50;9.70;99.90
21246;DHT22;10781;50.928;4.440;2024-01-25T08:50:17;9.90;99.90
21246;DHT22;10781;50.928;4.440;2024-01-25T08:52:43;10.00;99.90
21246;DHT22;10781;50.928;4.440;2024-01-25T08:55:09;9.90;99.90
21246;DHT22;10781;50.928;4.440;2024-01-25T08:57:35;10.00;99.90
21246;DHT22;10781;50.928;4.440;2024-01-25T09:00:02;9.80;99.90
21246;DHT22;10781;50.928;4.440;2024-01-25T09:02:27;9.70;99.90
21246;DHT22;10781;50.928;4.440;2024-01-25T09:04:55;9.50;99.90
21246;DHT22;10781;50.928;4.440;2024-01-25T09:07:21;9.50;99.90
21246;DHT22;10781;50.928;4.440;2024-01-25T09:09:48;9.60;99.90
21246;DHT22;10781;50.928;4.440;2024-01-25T09:12:14;9.80;99.90
21246;DHT22;10781;50.928;4.440;2024-01-25T09:14:41;10.00;99.90
21246;DHT22;10781;50.928;4.440;2024-01-25T09:17:08;9.90;99.90
21246;DHT22;10781;50.928;4.440;2024-01-25T09:19:34;9.90;99.90
21246;DHT22;10781;50.928;4.440;2024-01-25T09:21:59;9.90;99.90
21246;DHT22;10781;50.928;4.440;2024-01-25T09:24:30;9.80;99.90
21246;DHT22;10781;50.928;4.440;2024-01-25T09:26:55;9.90;99.90
21246;DHT22;10781;50.928;4.440;2024-01-25T09:29:21;10.00;99.90
21246;DHT22;10781;50.928;4.440;2024-01-25T09:31:47;10.10;99.90
21246;DHT22;10781;50.928;4.440;2024-01-25T09:34:12;10.30;99.90
21246;DHT22;10781;50.928;4.440;2024-01-25T09:36:38;10.20;99.90
21246;DHT22;10781;50.928;4.440;2024-01-25T09:39:03;10.40;99.90
21246;DHT22;10781;50.928;4.440;2024-01-25T09:41:29;10.50;99.90
21246;DHT22;10781;50.928;4.440;2024-01-25T09:43:55;10.50;99.90
21246;DHT22;10781;50.928;4.440;2024-01-25T09:46:21;10.60;99.90
21246;DHT22;10781;50.928;4.440;2024-01-25T09:48:48;10.60;99.90
21246;DHT22;10781;50.928;4.440;2024-01-25T09:51:14;10.20;99.90
21246;DHT22;10781;50.928;4.440;2024-01-25T09:53:40;10.20;99.90
21246;DHT22;10781;50.928;4.440;2024-01-25T09:56:08;10.30;99.90
21246;DHT22;10781;50.928;4.440;2024-01-25T09:58:43;10.60;99.90
21246;DHT22;10781;50.928;4.440;2024-01-25T10:01:12;10.60;99.90
21246;DHT22;10781;50.928;4.440;2024-01-25T10:03:41;10.70;99.90
21246;DHT22;10781;50.928;4.440;2024-01-25T10:06:08;10.90;99.90
21246;DHT22;10781;50.928;4.440;2024-01-25T10:08:34;11.10;99.90
21246;DHT22;10781;50.928;4.440;2024-01-25T10:11:00;11.30;99.90
21246;DHT22;10781;50.928;4.440;2024-01-25T10:13:26;11.30;99.90
21246;DHT22;10781;50.928;4.440;2024-01-25T10:15:55;11.10;99.90
21246;DHT22;10781;50.928;4.440;2024-01-25T10:18:25;10.90;99.90
21246;DHT22;10781;50.928;4.440;2024-01-25T10:20:53;11.10;99.90
21246;DHT22;10781;50.928;4.440;2024-01-25T10:23:19;11.20;99.90
21246;DHT22;10781;50.928;4.440;2024-01-25T10:25:44;11.30;99.90
21246;DHT22;10781;50.928;4.440;2024-01-25T10:28:10;11.40;99.90
21246;DHT22;10781;50.928;4.440;2024-01-25T10:30:38;11.20;99.90
21246;DHT22;10781;50.928;4.440;2024-01-25T10:33:04;10.90;99.90
21246;DHT22;10781;50.928;4.440;2024-01-25T10:35:31;10.90;99.90
21246;DHT22;10781;50.928;4.440;2024-01-25T10:37:57;11.00;99.90
21246;DHT22;10781;50.928;4.440;2024-01-25T10:40:23;11.00;99.90
21246;DHT22;10781;50.928;4.440;2024-01-25T10:42:49;11.10;99.90
21246;DHT22;10781;50.928;4.440;2024-01-25T10:45:15;11.00;99.90
21246;DHT22;10781;50.928;4.440;2024-01-25T10:47:41;11.40;99.90
21246;DHT22;10781;50.928;4.440;2024-01-25T10:50:08;11.80;99.90
21246;DHT22;10781;50.928;4.440;2024-01-25T10:52:35;12.00;99.90
21246;DHT22;10781;50.928;4.440;2024-01-25T10:55:03;12.20;99.90
21246;DHT22;10781;50.928;4.440;2024-01-25T10:57:38;12.40;99.90
21246;DHT22;10781;50.928;4.440;2024-01-25T11:00:10;12.50;99.90
21246;DHT22;10781;50.928;4.440;2024-01-25T11:02:36;12.70;99.90
21246;DHT22;10781;50.928;4.440;2024-01-25T11:05:08;12.60;99.90
21246;DHT22;10781;50.928;4.440;2024-01-25T11:07:47;12.50;99.90
21246;DHT22;10781;50.928;4.440;2024-01-25T11:10:19;12.50;99.90
21246;DHT22;10781;50.928;4.440;2024-01-25T11:12:58;12.70;99.90
21246;DHT22;10781;50.928;4.440;2024-01-25T11:15:32;12.80;99.90
21246;DHT22;10781;50.928;4.440;2024-01-25T11:17:58;12.50;99.90
21246;DHT22;10781;50.928;4.440;2024-01-25T11:20:25;12.40;99.90
21246;DHT22;10781;50.928;4.440;2024-01-25T11:23:17;12.30;99.90
21246;DHT22;10781;50.928;4.440;2024-01-25T11:25:47;12.50;99.90
21246;DHT22;10781;50.928;4.440;2024-01-25T11:28:14;12.70;99.90
21246;DHT22;10781;50.928;4.440;2024-01-25T11:30:44;12.70;99.90
21246;DHT22;10781;50.928;4.440;2024-01-25T11:33:11;12.80;99.90
21246;DHT22;10781;50.928;4.440;2024-01-25T11:35:37;12.80;99.90
21246;DHT22;10781;50.928;4.440;2024-01-25T11:38:03;12.60;99.90
21246;DHT22;10781;50.928;4.440;2024-01-25T11:40:29;12.70;99.90
21246;DHT22;10781;50.928;4.440;2024-01-25T11:42:56;12.70;99.90
21246;DHT22;10781;50.928;4.440;2024-01-25T11:45:22;12.60;99.90
21246;DHT22;10781;50.928;4.440;2024-01-25T11:47:48;12.70;99.90
21246;DHT22;10781;50.928;4.440;2024-01-25T11:50:14;12.80;99.90
21246;DHT22;10781;50.928;4.440;2024-01-25T11:52:40;12.80;99.90
21246;DHT22;10781;50.928;4.440;2024-01-25T11:55:08;13.10;99.90
21246;DHT22;10781;50.928;4.440;2024-01-25T11:57:38;13.30;99.90
21246;DHT22;10781;50.928;4.440;2024-01-25T12:00:07;13.20;99.90
21246;DHT22;10781;50.928;4.440;2024-01-25T12:02:38;13.20;99.90
21246;DHT22;10781;50.928;4.440;2024-01-25T12:05:04;13.30;99.90
21246;DHT22;10781;50.928;4.440;2024-01-25T12:07:31;13.40;99.90
21246;DHT22;10781;50.928;4.440;2024-01-25T12:10:04;13.60;99.90
21246;DHT22;10781;50.928;4.440;2024-01-25T12:12:30;13.70;99.90
21246;DHT22;10781;50.928;4.440;2024-01-25T12:15:00;13.50;99.90
21246;DHT22;10781;50.928;4.440;2024-01-25T12:17:30;13.30;99.90
21246;DHT22;10781;50.928;4.440;2024-01-25T12:19:57;12.80;99.90
21246;DHT22;10781;50.928;4.440;2024-01-25T12:22:23;12.80;99.90
21246;DHT22;10781;50.928;4.440;2024-01-25T12:24:53;12.80;99.90
21246;DHT22;10781;50.928;4.440;2024-01-25T12:27:23;12.80;99.90
21246;DHT22;10781;50.928;4.440;2024-01-25T12:29:50;12.70;99.90
21246;DHT22;10781;50.928;4.440;2024-01-25T12:32:16;12.70;99.90
21246;DHT22;10781;50.928;4.440;2024-01-25T12:34:52;12.70;99.90
21246;DHT22;10781;50.928;4.440;2024-01-25T12:37:18;12.50;99.90
21246;DHT22;10781;50.928;4.440;2024-01-25T12:39:44;12.50;99.90
21246;DHT22;10781;50.928;4.440;2024-01-25T12:42:10;12.60;99.90
21246;DHT22;10781;50.928;4.440;2024-01-25T12:44:35;12.50;99.90
21246;DHT22;10781;50.928;4.440;2024-01-25T12:47:01;12.40;99.90
21246;DHT22;10781;50.928;4.440;2024-01-25T12:49:28;12.40;99.90
21246;DHT22;10781;50.928;4.440;2024-01-25T12:51:54;12.40;99.90
21246;DHT22;10781;50.928;4.440;2024-01-25T12:54:20;12.40;99.90
21246;DHT22;10781;50.928;4.440;2024-01-25T12:56:46;12.40;99.90
21246;DHT22;10781;50.928;4.440;2024-01-25T12:59:12;12.10;99.90
21246;DHT22;10781;50.928;4.440;2024-01-25T13:01:37;12.00;99.90
21246;DHT22;10781;50.928;4.440;2024-01-25T13:04:03;12.10;99.90
21246;DHT22;10781;50.928;4.440;2024-01-25T13:06:29;12.10;99.90
21246;DHT22;10781;50.928;4.440;2024-01-25T13:08:54;12.10;99.90
21246;DHT22;10781;50.928;4.440;2024-01-25T13:11:20;11.90;99.90
21246;DHT22;10781;50.928;4.440;2024-01-25T13:13:46;11.90;99.90
21246;DHT22;10781;50.928;4.440;2024-01-25T13:16:11;11.80;99.90
21246;DHT22;10781;50.928;4.440;2024-01-25T13:18:38;11.80;99.90
21246;DHT22;10781;50.928;4.440;2024-01-25T13:21:04;11.70;99.90
21246;DHT22;10781;50.928;4.440;2024-01-25T13:23:30;11.80;99.90
21246;DHT22;10781;50.928;4.440;2024-01-25T13:25:55;11.70;99.90
21246;DHT22;10781;50.928;4.440;2024-01-25T13:28:21;11.70;99.90
21246;DHT22;10781;50.928;4.440;2024-01-25T13:30:46;11.80;99.90
21246;DHT22;10781;50.928;4.440;2024-01-25T13:33:12;11.90;99.90
21246;DHT22;10781;50.928;4.440;2024-01-25T13:35:38;11.90;99.90
21246;DHT22;10781;50.928;4.440;2024-01-25T13:38:03;12.00;99.90
21246;DHT22;10781;50.928;4.440;2024-01-25T13:40:29;11.90;99.90
21246;DHT22;10781;50.928;4.440;2024-01-25T13:42:55;11.80;99.90
21246;DHT22;10781;50.928;4.440;2024-01-25T13:45:21;11.80;99.90
21246;DHT22;10781;50.928;4.440;2024-01-25T13:47:46;11.90;99.90
21246;DHT22;10781;50.928;4.440;2024-01-25T13:50:12;11.80;99.90
21246;DHT22;10781;50.928;4.440;2024-01-25T13:52:38;11.80;99.90
21246;DHT22;10781;50.928;4.440;2024-01-25T13:55:03;11.90;99.90
21246;DHT22;10781;50.928;4.440;2024-01-25T13:57:29;12.00;99.90
21246;DHT22;10781;50.928;4.440;2024-01-25T13:59:55;12.10;99.90
21246;DHT22;10781;50.928;4.440;2024-01-25T14:02:20;12.10;99.90
21246;DHT22;10781;50.928;4.440;2024-01-25T14:04:46;12.10;99.90
21246;DHT22;10781;50.928;4.440;2024-01-25T14:07:15;12.30;99.90
21246;DHT22;10781;50.928;4.440;2024-01-25T14:09:41;12.40;99.90
21246;DHT22;10781;50.928;4.440;2024-01-25T14:12:08;12.40;99.90
21246;DHT22;10781;50.928;4.440;2024-01-25T14:14:33;12.40;99.90
21246;DHT22;10781;50.928;4.440;2024-01-25T14:16:59;12.40;99.90
21246;DHT22;10781;50.928;4.440;2024-01-25T14:19:25;12.30;99.90
21246;DHT22;10781;50.928;4.440;2024-01-25T14:21:50;12.30;99.90
21246;DHT22;10781;50.928;4.440;2024-01-25T14:24:16;12.20;99.90
21246;DHT22;10781;50.928;4.440;2024-01-25T14:26:44;12.20;99.90
21246;DHT22;10781;50.928;4.440;2024-01-25T14:29:10;12.10;99.90
21246;DHT22;10781;50.928;4.440;2024-01-25T14:31:36;12.00;99.90
21246;DHT22;10781;50.928;4.440;2024-01-25T14:34:02;11.90;99.90
21246;DHT22;10781;50.928;4.440;2024-01-25T14:36:28;11.90;99.90
21246;DHT22;10781;50.928;4.440;2024-01-25T14:38:53;11.80;99.90
21246;DHT22;10781;50.928;4.440;2024-01-25T14:41:19;11.80;99.90
21246;DHT22;10781;50.928;4.440;2024-01-25T14:43:44;11.90;99.90
21246;DHT22;10781;50.928;4.440;2024-01-25T14:46:10;11.90;99.90
21246;DHT22;10781;50.928;4.440;2024-01-25T14:48:36;12.00;99.90
21246;DHT22;10781;50.928;4.440;2024-01-25T14:51:02;11.90;99.90
21246;DHT22;10781;50.928;4.440;2024-01-25T14:53:27;12.00;99.90
21246;DHT22;10781;50.928;4.440;2024-01-25T14:55:53;12.00;99.90
21246;DHT22;10781;50.928;4.440;2024-01-25T14:58:19;12.00;99.90
21246;DHT22;10781;50.928;4.440;2024-01-25T15:00:51;12.00;99.90
21246;DHT22;10781;50.928;4.440;2024-01-25T15:03:18;12.00;99.90
21246;DHT22;10781;50.928;4.440;2024-01-25T15:05:44;11.90;99.90
21246;DHT22;10781;50.928;4.440;2024-01-25T15:08:10;12.00;99.90
21246;DHT22;10781;50.928;4.440;2024-01-25T15:10:36;12.00;99.90
21246;DHT22;10781;50.928;4.440;2024-01-25T15:13:02;12.00;99.90
21246;DHT22;10781;50.928;4.440;2024-01-25T15:15:28;12.00;99.90
21246;DHT22;10781;50.928;4.440;2024-01-25T15:17:54;11.90;99.90
21246;DHT22;10781;50.928;4.440;2024-01-25T15:20:20;11.90;99.90
21246;DHT22;10781;50.928;4.440;2024-01-25T15:22:46;12.00;99.90
21246;DHT22;10781;50.928;4.440;2024-01-25T15:25:12;12.00;99.90
21246;DHT22;10781;50.928;4.440;2024-01-25T15:27:38;12.00;99.90
21246;DHT22;10781;50.928;4.440;2024-01-25T15:30:04;11.90;99.90
21246;DHT22;10781;50.928;4.440;2024-01-25T15:32:31;11.90;99.90
21246;DHT22;10781;50.928;4.440;2024-01-25T15:34:57;11.90;99.90